createdAt,value
2018-08-07T00:01:39.474Z,95343.00
2018-08-07T00:04:09.490Z,95337.00
2018-08-07T00:06:39.878Z,95343.00
2018-08-07T00:09:11.942Z,95344.00
2018-08-07T00:11:41.826Z,95330.00
2018-08-07T00:14:12.056Z,95344.00
2018-08-07T00:16:41.715Z,95340.00
2018-08-07T00:19:12.133Z,95331.00
2018-08-07T00:21:41.807Z,95322.00
2018-08-07T00:24:11.613Z,95329.00
2018-08-07T00:26:41.247Z,95329.00
2018-08-07T00:29:10.502Z,95318.00
2018-08-07T00:31:40.243Z,95323.00
2018-08-07T00:34:09.903Z,95321.00
2018-08-07T00:36:39.635Z,95306.00
2018-08-07T00:39:12.519Z,95320.00
2018-08-07T00:41:42.073Z,95320.00
2018-08-07T00:44:12.285Z,95320.00
2018-08-07T00:46:41.917Z,95315.00
2018-08-07T00:49:11.581Z,95319.00
2018-08-07T00:51:41.151Z,95309.00
2018-08-07T00:54:10.697Z,95323.00
2018-08-07T00:56:40.640Z,95313.00
2018-08-07T00:59:10.463Z,95313.00
2018-08-07T01:01:40.165Z,95316.00
2018-08-07T01:04:10.547Z,95321.00
2018-08-07T01:06:40.449Z,95319.00
2018-08-07T01:09:10.905Z,95319.00
2018-08-07T01:11:40.621Z,95321.00
2018-08-07T01:14:09.779Z,95327.00
2018-08-07T01:16:39.287Z,95324.00
2018-08-07T01:19:10.063Z,95321.00
2018-08-07T01:21:40.406Z,95322.00
2018-08-07T01:24:09.990Z,95326.00
2018-08-07T01:26:39.652Z,95325.00
2018-08-07T01:29:09.244Z,95330.00
2018-08-07T01:31:39.598Z,95336.00
2018-08-07T01:34:09.123Z,95334.00
2018-08-07T01:36:38.860Z,95329.00
2018-08-07T01:39:09.809Z,95329.00
2018-08-07T01:41:39.641Z,95322.00
2018-08-07T01:44:09.316Z,95332.00
2018-08-07T01:46:39.387Z,95322.00
2018-08-07T01:49:09.618Z,95317.00
2018-08-07T01:51:39.198Z,95326.00
2018-08-07T01:54:09.252Z,95329.00
2018-08-07T01:56:39.105Z,95328.00
2018-08-07T01:59:08.268Z,95324.00
2018-08-07T02:01:37.830Z,95320.00
2018-08-07T02:04:07.770Z,95323.00
2018-08-07T02:06:37.405Z,95321.00
2018-08-07T02:09:08.412Z,95324.00
2018-08-07T02:11:38.881Z,95324.00
2018-08-07T02:14:08.765Z,95315.00
2018-08-07T02:16:38.592Z,95324.00
2018-08-07T02:19:08.709Z,95319.00
2018-08-07T02:21:38.440Z,95315.00
2018-08-07T02:24:08.046Z,95316.00
2018-08-07T02:26:37.205Z,95317.00
2018-08-07T02:29:06.750Z,95324.00
2018-08-07T02:31:36.058Z,95309.00
2018-08-07T02:34:05.395Z,95308.00
2018-08-07T02:36:35.476Z,95308.00
2018-08-07T02:39:06.034Z,95307.00
2018-08-07T02:41:36.116Z,95311.00
2018-08-07T02:44:05.860Z,95309.00
2018-08-07T02:46:35.763Z,95309.00
2018-08-07T02:49:05.239Z,95315.00
2018-08-07T02:51:34.940Z,95326.00
2018-08-07T02:54:04.605Z,95307.00
2018-08-07T02:56:33.996Z,95321.00
2018-08-07T02:59:04.290Z,95322.00
2018-08-07T03:01:34.514Z,95323.00
2018-08-07T03:04:04.867Z,95325.00
2018-08-07T03:06:34.520Z,95321.00
2018-08-07T03:09:05.899Z,95311.00
2018-08-07T03:11:36.433Z,95314.00
2018-08-07T03:14:06.415Z,95323.00
2018-08-07T03:16:35.959Z,95326.00
2018-08-07T03:19:06.083Z,95329.00
2018-08-07T03:21:35.381Z,95333.00
2018-08-07T03:24:05.120Z,95336.00
2018-08-07T03:26:34.879Z,95331.00
2018-08-07T03:29:04.979Z,95335.00
2018-08-07T03:31:34.647Z,95329.00
2018-08-07T03:34:04.675Z,95328.00
2018-08-07T03:36:34.468Z,95331.00
2018-08-07T03:39:03.983Z,95332.00
2018-08-07T03:41:33.393Z,95327.00
2018-08-07T03:44:03.258Z,95330.00
2018-08-07T03:46:32.956Z,95328.00
2018-08-07T03:49:03.360Z,95335.00
2018-08-07T03:51:33.520Z,95336.00
2018-08-07T03:54:04.049Z,95328.00
2018-08-07T03:56:33.872Z,95332.00
2018-08-07T03:59:03.530Z,95327.00
2018-08-07T04:01:33.055Z,95324.00
2018-08-07T04:04:02.985Z,95323.00
2018-08-07T04:06:32.791Z,95328.00
2018-08-07T04:09:02.464Z,95320.00
2018-08-07T04:11:31.884Z,95325.00
2018-08-07T04:14:02.478Z,95333.00
2018-08-07T04:16:32.000Z,95340.00
2018-08-07T04:19:02.826Z,95345.00
2018-08-07T04:21:31.878Z,95345.00
2018-08-07T04:24:02.293Z,95347.00
2018-08-07T04:26:33.563Z,95341.00
2018-08-07T04:29:03.043Z,95349.00
2018-08-07T04:31:33.433Z,95351.00
2018-08-07T04:34:03.729Z,95341.00
2018-08-07T04:36:33.485Z,95347.00
2018-08-07T04:39:04.826Z,95342.00
2018-08-07T04:41:34.524Z,95345.00
2018-08-07T04:44:04.955Z,95343.00
2018-08-07T04:46:34.533Z,95342.00
2018-08-07T04:49:04.227Z,95342.00
2018-08-07T04:51:34.064Z,95344.00
2018-08-07T04:54:03.239Z,95348.00
2018-08-07T04:56:32.849Z,95345.00
2018-08-07T04:59:02.436Z,95347.00
2018-08-07T05:01:32.071Z,95344.00
2018-08-07T05:04:02.534Z,95350.00
2018-08-07T05:06:31.883Z,95349.00
2018-08-07T05:09:01.815Z,95346.00
2018-08-07T05:11:32.143Z,95344.00
2018-08-07T05:14:02.437Z,95337.00
2018-08-07T05:16:32.161Z,95348.00
2018-08-07T05:19:01.844Z,95354.00
2018-08-07T05:21:32.775Z,95352.00
2018-08-07T05:24:02.663Z,95355.00
2018-08-07T05:26:32.399Z,95364.00
2018-08-07T05:29:02.134Z,95359.00
2018-08-07T05:31:31.702Z,95367.00
2018-08-07T05:34:01.682Z,95354.00
2018-08-07T05:36:31.415Z,95366.00
2018-08-07T05:39:00.927Z,95361.00
2018-08-07T05:41:33.922Z,95362.00
2018-08-07T05:44:04.210Z,95365.00
2018-08-07T05:46:33.778Z,95373.00
2018-08-07T05:49:03.520Z,95366.00
2018-08-07T05:51:34.465Z,95356.00
2018-08-07T05:54:03.914Z,95357.00
2018-08-07T05:56:33.717Z,95362.00
2018-08-07T05:59:43.697Z,95364.00
2018-08-07T06:02:15.345Z,95368.00
2018-08-07T06:04:44.989Z,95364.00
2018-08-07T06:07:18.065Z,95363.00
2018-08-07T06:09:47.715Z,95359.00
2018-08-07T06:12:16.969Z,95353.00
2018-08-07T06:14:46.477Z,95354.00
2018-08-07T06:17:16.532Z,95362.00
2018-08-07T06:19:46.536Z,95358.00
2018-08-07T06:22:17.834Z,95358.00
2018-08-07T06:24:50.944Z,95358.00
2018-08-07T06:27:23.152Z,95363.00
2018-08-07T06:29:56.920Z,95360.00
2018-08-07T06:32:26.897Z,95359.00
2018-08-07T06:34:56.416Z,95360.00
2018-08-07T06:37:25.872Z,95356.00
2018-08-07T06:39:56.097Z,95350.00
2018-08-07T06:42:26.029Z,95353.00
2018-08-07T06:44:55.277Z,95358.00
2018-08-07T06:47:25.160Z,95366.00
2018-08-07T06:49:54.296Z,95358.00
2018-08-07T06:52:23.932Z,95353.00
2018-08-07T06:54:53.570Z,95356.00
2018-08-07T06:57:22.978Z,95354.00
2018-08-07T06:59:52.318Z,95354.00
2018-08-07T07:02:21.978Z,95355.00
2018-08-07T07:04:52.148Z,95358.00
2018-08-07T07:07:21.966Z,95359.00
2018-08-07T07:09:51.930Z,95370.00
2018-08-07T07:12:21.742Z,95368.00
2018-08-07T07:15:12.052Z,95371.00
2018-08-07T07:18:10.322Z,95361.00
2018-08-07T07:23:21.519Z,95360.00
2018-08-07T07:25:51.229Z,95361.00
2018-08-07T07:28:21.235Z,95359.00
2018-08-07T07:30:51.532Z,95347.00
2018-08-07T07:33:21.611Z,95359.00
2018-08-07T07:35:51.324Z,95344.00
2018-08-07T07:38:21.491Z,95357.00
2018-08-07T07:40:51.271Z,95357.00
2018-08-07T07:43:21.883Z,95348.00
2018-08-07T07:45:52.960Z,95350.00
2018-08-07T07:48:24.789Z,95350.00
2018-08-07T07:50:54.554Z,95354.00
2018-08-07T07:53:25.494Z,95353.00
2018-08-07T07:55:56.291Z,95354.00
2018-08-07T07:58:26.086Z,95360.00
2018-08-07T08:00:56.051Z,95351.00
2018-08-07T08:03:25.545Z,95360.00
2018-08-07T08:05:55.309Z,95361.00
2018-08-07T08:08:25.548Z,95357.00
2018-08-07T08:10:55.079Z,95362.00
2018-08-07T08:13:27.220Z,95359.00
2018-08-07T08:15:57.189Z,95357.00
2018-08-07T08:18:28.554Z,95348.00
2018-08-07T08:20:58.566Z,95348.00
2018-08-07T08:23:28.683Z,95355.00
2018-08-07T08:25:57.976Z,95346.00
2018-08-07T08:28:28.926Z,95342.00
2018-08-07T08:30:58.405Z,95344.00
2018-08-07T08:33:28.483Z,95343.00
2018-08-07T08:35:59.973Z,95351.00
2018-08-07T08:38:29.737Z,95343.00
2018-08-07T08:40:59.568Z,95343.00
2018-08-07T08:43:29.362Z,95348.00
2018-08-07T08:45:59.987Z,95344.00
2018-08-07T08:48:29.851Z,95343.00
2018-08-07T08:50:59.518Z,95342.00
2018-08-07T08:53:29.167Z,95348.00
2018-08-07T08:55:58.924Z,95348.00
2018-08-07T08:58:28.880Z,95339.00
2018-08-07T09:00:58.669Z,95338.00
2018-08-07T09:03:28.793Z,95344.00
2018-08-07T09:05:58.380Z,95350.00
2018-08-07T09:08:28.532Z,95350.00
2018-08-07T09:10:58.353Z,95351.00
2018-08-07T09:13:27.811Z,95352.00
2018-08-07T09:15:57.166Z,95351.00
2018-08-07T09:18:26.757Z,95355.00
2018-08-07T09:20:56.533Z,95344.00
2018-08-07T09:23:25.766Z,95349.00
2018-08-07T09:25:55.670Z,95350.00
2018-08-07T09:28:25.996Z,95345.00
2018-08-07T09:31:00.184Z,95347.00
2018-08-07T09:33:29.831Z,95348.00
2018-08-07T09:35:59.397Z,95346.00
2018-08-07T09:38:28.841Z,95340.00
2018-08-07T09:40:59.747Z,95345.00
2018-08-07T09:43:32.968Z,95337.00
2018-08-07T09:46:02.679Z,95344.00
2018-08-07T09:48:32.360Z,95344.00
2018-08-07T09:51:02.819Z,95342.00
2018-08-07T09:53:32.409Z,95339.00
2018-08-07T09:56:02.122Z,95333.00
2018-08-07T09:58:32.370Z,95340.00
2018-08-07T10:01:08.008Z,95334.00
2018-08-07T10:03:37.834Z,95327.00
2018-08-07T10:06:08.456Z,95332.00
2018-08-07T10:08:38.055Z,95335.00
2018-08-07T10:11:08.259Z,95333.00
2018-08-07T10:13:37.966Z,95328.00
2018-08-07T10:16:07.418Z,95324.00
2018-08-07T10:18:36.981Z,95326.00
2018-08-07T10:21:08.159Z,95323.00
2018-08-07T10:23:38.135Z,95316.00
2018-08-07T10:26:07.667Z,95319.00
2018-08-07T10:28:37.313Z,95305.00
2018-08-07T10:31:07.094Z,95314.00
2018-08-07T10:33:36.909Z,95304.00
2018-08-07T10:36:06.901Z,95295.00
2018-08-07T10:38:36.491Z,95302.00
2018-08-07T10:41:05.703Z,95291.00
2018-08-07T10:43:35.526Z,95296.00
2018-08-07T10:46:05.327Z,95300.00
2018-08-07T10:48:35.430Z,95301.00
2018-08-07T10:51:05.445Z,95296.00
2018-08-07T10:53:40.331Z,95293.00
2018-08-07T10:56:10.078Z,95293.00
2018-08-07T10:58:41.051Z,95296.00
2018-08-07T11:01:10.966Z,95301.00
2018-08-07T11:03:41.540Z,95293.00
2018-08-07T11:06:11.170Z,95300.00
2018-08-07T11:08:41.586Z,95305.00
2018-08-07T11:11:11.366Z,95298.00
2018-08-07T11:13:41.110Z,95297.00
2018-08-07T11:16:11.816Z,95293.00
2018-08-07T11:18:42.344Z,95290.00
2018-08-07T11:21:13.066Z,95286.00
2018-08-07T11:23:42.952Z,95281.00
2018-08-07T11:26:15.357Z,95277.00
2018-08-07T11:28:48.187Z,95274.00
2018-08-07T11:31:17.544Z,95270.00
2018-08-07T11:33:49.173Z,95273.00
2018-08-07T11:36:18.771Z,95266.00
2018-08-07T11:38:47.843Z,95271.00
2018-08-07T11:41:19.161Z,95262.00
2018-08-07T11:43:49.928Z,95260.00
2018-08-07T11:46:19.643Z,95261.00
2018-08-07T11:48:49.999Z,95258.00
2018-08-07T11:51:20.743Z,95258.00
2018-08-07T11:53:50.769Z,95259.00
2018-08-07T11:56:22.359Z,95263.00
2018-08-07T11:58:52.358Z,95263.00
2018-08-07T12:01:22.313Z,95253.00
2018-08-07T12:03:51.928Z,95254.00
2018-08-07T12:06:21.859Z,95254.00
2018-08-07T12:08:51.560Z,95252.00
2018-08-07T12:11:20.670Z,95257.00
2018-08-07T12:13:50.214Z,95261.00
2018-08-07T12:16:19.914Z,95257.00
2018-08-07T12:18:49.006Z,95250.00
2018-08-07T12:21:18.666Z,95246.00
2018-08-07T12:23:48.252Z,95242.00
2018-08-07T12:26:18.100Z,95235.00
2018-08-07T12:28:47.364Z,95239.00
2018-08-07T12:31:17.527Z,95241.00
2018-08-07T12:33:47.155Z,95236.00
2018-08-07T12:36:16.863Z,95235.00
2018-08-07T12:38:46.726Z,95241.00
2018-08-07T12:41:17.194Z,95235.00
2018-08-07T12:43:47.259Z,95231.00
2018-08-07T12:46:16.784Z,95234.00
2018-08-07T12:48:46.320Z,95233.00
2018-08-07T12:51:16.557Z,95228.00
2018-08-07T12:53:46.461Z,95238.00
2018-08-07T12:56:16.866Z,95243.00
2018-08-07T12:58:46.363Z,95233.00
2018-08-07T13:01:15.959Z,95241.00
2018-08-07T13:03:45.582Z,95245.00
2018-08-07T13:06:15.214Z,95255.00
2018-08-07T13:08:44.857Z,95273.00
2018-08-07T13:11:14.583Z,95292.00
2018-08-07T13:13:44.459Z,95312.00
2018-08-07T13:16:14.113Z,95309.00
2018-08-07T13:18:44.207Z,95295.00
2018-08-07T13:21:13.991Z,95310.00
2018-08-07T13:23:44.291Z,95324.00
2018-08-07T13:26:13.772Z,95319.00
2018-08-07T13:28:43.407Z,95314.00
2018-08-07T13:31:13.364Z,95306.00
2018-08-07T13:33:43.248Z,95319.00
2018-08-07T13:36:12.366Z,95315.00
2018-08-07T13:38:43.102Z,95316.00
2018-08-07T13:41:13.272Z,95310.00
2018-08-07T13:43:43.086Z,95294.00
2018-08-07T13:46:13.072Z,95291.00
2018-08-07T13:48:42.744Z,95277.00
2018-08-07T13:51:12.937Z,95277.00
2018-08-07T13:53:42.718Z,95289.00
2018-08-07T13:56:12.590Z,95292.00
2018-08-07T13:58:43.020Z,95291.00
2018-08-07T14:01:13.040Z,95283.00
2018-08-07T14:03:43.477Z,95285.00
2018-08-07T14:06:12.942Z,95282.00
2018-08-07T14:08:42.117Z,95294.00
2018-08-07T14:11:12.514Z,95286.00
2018-08-07T14:13:42.178Z,95278.00
2018-08-07T14:16:11.444Z,95256.00
2018-08-07T14:18:41.716Z,95248.00
2018-08-07T14:21:13.426Z,95248.00
2018-08-07T14:23:43.115Z,95247.00
2018-08-07T14:26:13.823Z,95259.00
2018-08-07T14:28:43.897Z,95258.00
2018-08-07T14:31:13.446Z,95253.00
2018-08-07T14:33:43.409Z,95251.00
2018-08-07T14:36:13.616Z,95249.00
2018-08-07T14:38:43.751Z,95242.00
2018-08-07T14:41:14.744Z,95244.00
2018-08-07T14:43:44.025Z,95245.00
2018-08-07T14:46:14.090Z,95237.00
2018-08-07T14:48:44.161Z,95235.00
2018-08-07T14:51:15.349Z,95236.00
2018-08-07T14:53:47.030Z,95235.00
2018-08-07T14:56:17.148Z,95225.00
2018-08-07T14:58:48.809Z,95224.00
2018-08-07T15:01:19.786Z,95226.00
2018-08-07T15:03:50.450Z,95233.00
2018-08-07T15:06:20.960Z,95234.00
2018-08-07T15:08:50.840Z,95237.00
2018-08-07T15:11:22.583Z,95236.00
2018-08-07T15:13:52.476Z,95240.00
2018-08-07T15:16:22.053Z,95244.00
2018-08-07T15:18:51.274Z,95237.00
2018-08-07T15:21:21.084Z,95239.00
2018-08-07T15:23:50.824Z,95257.00
2018-08-07T15:26:20.514Z,95252.00
2018-08-07T15:28:50.437Z,95262.00
2018-08-07T15:31:20.034Z,95248.00
2018-08-07T15:33:50.911Z,95256.00
2018-08-07T15:36:20.746Z,95260.00
2018-08-07T15:38:50.403Z,95245.00
2018-08-07T15:41:19.919Z,95249.00
2018-08-07T15:43:50.026Z,95254.00
2018-08-07T15:46:19.661Z,95251.00
2018-08-07T15:48:49.905Z,95257.00
2018-08-07T15:51:19.545Z,95263.00
2018-08-07T15:53:49.635Z,95250.00
2018-08-07T15:56:20.406Z,95243.00
2018-08-07T15:58:51.147Z,95243.00
2018-08-07T16:01:20.824Z,95231.00
2018-08-07T16:03:50.212Z,95236.00
2018-08-07T16:06:19.890Z,95238.00
2018-08-07T16:08:49.518Z,95245.00
2018-08-07T16:11:19.217Z,95230.00
2018-08-07T16:13:48.626Z,95231.00
2018-08-07T16:16:18.398Z,95224.00
2018-08-07T16:18:48.082Z,95228.00
2018-08-07T16:21:17.330Z,95223.00
2018-08-07T16:23:47.718Z,95219.00
2018-08-07T16:26:18.262Z,95212.00
2018-08-07T16:28:48.602Z,95208.00
2018-08-07T16:31:18.559Z,95204.00
2018-08-07T16:33:52.168Z,95212.00
2018-08-07T16:36:21.466Z,95201.00
2018-08-07T16:38:53.158Z,95190.00
2018-08-07T16:41:26.473Z,95204.00
2018-08-07T16:43:56.090Z,95192.00
2018-08-07T16:46:25.761Z,95197.00
2018-08-07T16:48:56.228Z,95198.00
2018-08-07T16:51:26.164Z,95188.00
2018-08-07T16:54:13.593Z,95186.00
2018-08-07T16:56:43.637Z,95179.00
2018-08-07T16:59:15.585Z,95183.00
2018-08-07T17:01:47.678Z,95180.00
2018-08-07T17:04:17.263Z,95183.00
2018-08-07T17:06:47.124Z,95181.00
2018-08-07T17:09:16.697Z,95185.00
2018-08-07T17:11:45.976Z,95175.00
2018-08-07T17:14:15.809Z,95179.00
2018-08-07T17:16:45.475Z,95175.00
2018-08-07T17:19:15.781Z,95175.00
2018-08-07T17:21:47.237Z,95179.00
2018-08-07T17:24:16.788Z,95175.00
2018-08-07T17:26:47.180Z,95177.00
2018-08-07T17:29:17.748Z,95178.00
2018-08-07T17:31:58.272Z,95179.00
2018-08-07T17:34:36.206Z,95180.00
2018-08-07T17:37:07.258Z,95180.00
2018-08-07T17:39:36.836Z,95175.00
2018-08-07T17:42:08.397Z,95178.00
2018-08-07T17:44:39.019Z,95180.00
2018-08-07T17:47:10.822Z,95181.00
2018-08-07T17:49:42.598Z,95182.00
2018-08-07T17:52:12.976Z,95182.00
2018-08-07T17:54:42.997Z,95187.00
2018-08-07T17:57:13.375Z,95195.00
2018-08-07T17:59:44.363Z,95185.00
2018-08-07T18:02:27.406Z,95186.00
2018-08-07T18:04:57.221Z,95184.00
2018-08-07T18:07:27.765Z,95188.00
2018-08-07T18:09:58.829Z,95180.00
2018-08-07T18:12:28.589Z,95174.00
2018-08-07T18:14:58.691Z,95170.00
2018-08-07T18:17:28.458Z,95167.00
2018-08-07T18:19:58.345Z,95167.00
2018-08-07T18:22:27.681Z,95166.00
2018-08-07T18:25:30.174Z,95161.00
2018-08-07T18:28:00.496Z,95168.00
2018-08-07T18:30:30.318Z,95164.00
2018-08-07T18:33:07.072Z,95170.00
2018-08-07T18:35:36.845Z,95169.00
2018-08-07T18:38:07.966Z,95176.00
2018-08-07T18:40:37.715Z,95170.00
2018-08-07T18:43:08.320Z,95168.00
2018-08-07T18:45:39.218Z,95170.00
2018-08-07T18:48:09.280Z,95173.00
2018-08-07T18:50:39.129Z,95162.00
2018-08-07T18:53:10.444Z,95157.00
2018-08-07T18:55:46.402Z,95153.00
2018-08-07T18:58:18.663Z,95155.00
2018-08-07T19:00:48.235Z,95157.00
2018-08-07T19:03:18.734Z,95152.00
2018-08-07T19:05:49.510Z,95154.00
2018-08-07T19:08:21.106Z,95155.00
2018-08-07T19:10:52.302Z,95160.00
2018-08-07T19:13:22.816Z,95146.00
2018-08-07T19:15:58.452Z,95145.00
2018-08-07T19:18:29.828Z,95148.00
2018-08-07T19:21:06.989Z,95148.00
2018-08-07T19:23:36.960Z,95147.00
2018-08-07T19:26:08.050Z,95144.00
2018-08-07T19:28:43.106Z,95141.00
2018-08-07T19:31:13.808Z,95142.00
2018-08-07T19:33:44.742Z,95139.00
2018-08-07T19:36:14.886Z,95140.00
2018-08-07T19:38:44.886Z,95137.00
2018-08-07T19:41:15.740Z,95135.00
2018-08-07T19:43:45.699Z,95131.00
2018-08-07T19:46:18.375Z,95132.00
2018-08-07T19:48:49.161Z,95141.00
2018-08-07T19:51:18.989Z,95144.00
2018-08-07T19:53:48.716Z,95144.00
2018-08-07T19:56:18.795Z,95147.00
2018-08-07T19:58:48.835Z,95144.00
2018-08-07T20:01:26.286Z,95148.00
2018-08-07T20:03:57.689Z,95150.00
2018-08-07T20:06:28.556Z,95159.00
2018-08-07T20:09:02.938Z,95163.00
2018-08-07T20:11:34.182Z,95172.00
2018-08-07T20:14:08.439Z,95161.00
2018-08-07T20:16:38.073Z,95164.00
2018-08-07T20:19:13.730Z,95162.00
2018-08-07T20:21:43.720Z,95153.00
2018-08-07T20:24:13.974Z,95149.00
2018-08-07T20:26:45.248Z,95156.00
2018-08-07T20:29:15.228Z,95157.00
2018-08-07T20:31:47.606Z,95152.00
2018-08-07T20:34:17.630Z,95158.00
2018-08-07T20:36:49.345Z,95159.00
2018-08-07T20:39:19.535Z,95158.00
2018-08-07T20:41:49.221Z,95151.00
2018-08-07T20:44:18.823Z,95148.00
2018-08-07T20:46:48.511Z,95144.00
2018-08-07T20:49:18.906Z,95146.00
2018-08-07T20:51:48.537Z,95152.00
2018-08-07T20:54:18.143Z,95156.00
2018-08-07T20:56:47.805Z,95148.00
2018-08-07T20:59:19.003Z,95144.00
2018-08-07T21:01:48.680Z,95148.00
2018-08-07T21:04:19.221Z,95145.00
2018-08-07T21:06:49.055Z,95144.00
2018-08-07T21:09:19.671Z,95149.00
2018-08-07T21:11:49.500Z,95147.00
2018-08-07T21:14:19.252Z,95156.00
2018-08-07T21:16:48.950Z,95142.00
2018-08-07T21:19:18.787Z,95142.00
2018-08-07T21:21:48.381Z,95141.00
2018-08-07T21:24:18.038Z,95135.00
2018-08-07T21:26:47.800Z,95149.00
2018-08-07T21:29:18.739Z,95145.00
2018-08-07T21:31:48.232Z,95153.00
2018-08-07T21:34:19.503Z,95151.00
2018-08-07T21:36:49.679Z,95153.00
2018-08-07T21:39:19.656Z,95157.00
2018-08-07T21:41:49.219Z,95162.00
2018-08-07T21:44:18.834Z,95161.00
2018-08-07T21:46:49.448Z,95166.00
2018-08-07T21:49:19.832Z,95160.00
2018-08-07T21:51:49.606Z,95161.00
2018-08-07T21:54:19.084Z,95159.00
2018-08-07T21:56:48.832Z,95158.00
2018-08-07T21:59:19.743Z,95154.00
2018-08-07T22:01:49.644Z,95169.00
2018-08-07T22:04:19.225Z,95157.00
2018-08-07T22:06:48.909Z,95153.00
2018-08-07T22:09:19.185Z,95157.00
2018-08-07T22:11:49.045Z,95161.00
2018-08-07T22:14:18.931Z,95150.00
2018-08-07T22:16:49.371Z,95154.00
2018-08-07T22:19:19.463Z,95155.00
2018-08-07T22:21:49.360Z,95142.00
2018-08-07T22:24:19.382Z,95131.00
2018-08-07T22:26:49.179Z,95152.00
2018-08-07T22:29:18.711Z,95146.00
2018-08-07T22:31:48.216Z,95139.00
2018-08-07T22:34:17.640Z,95148.00
2018-08-07T22:36:47.877Z,95144.00
2018-08-07T22:39:17.669Z,95149.00
2018-08-07T22:41:47.485Z,95150.00
2018-08-07T22:44:17.228Z,95141.00
2018-08-07T22:46:47.258Z,95136.00
2018-08-07T22:49:17.440Z,95134.00
2018-08-07T22:51:47.796Z,95131.00
2018-08-07T22:54:17.951Z,95129.00
2018-08-07T22:56:47.456Z,95137.00
2018-08-07T22:59:17.315Z,95140.00
2018-08-07T23:01:47.639Z,95132.00
2018-08-07T23:04:17.350Z,95132.00
2018-08-07T23:06:46.956Z,95134.00
2018-08-07T23:09:16.742Z,95137.00
2018-08-07T23:11:46.392Z,95135.00
2018-08-07T23:14:15.956Z,95132.00
2018-08-07T23:16:46.176Z,95143.00
2018-08-07T23:19:16.133Z,95135.00
2018-08-07T23:21:46.137Z,95142.00
2018-08-07T23:24:15.736Z,95134.00
2018-08-07T23:26:45.908Z,95137.00
2018-08-07T23:29:15.420Z,95138.00
2018-08-07T23:31:45.055Z,95140.00
2018-08-07T23:34:15.025Z,95137.00
2018-08-07T23:36:44.799Z,95131.00
2018-08-07T23:39:15.091Z,95138.00
2018-08-07T23:41:45.003Z,95141.00
2018-08-07T23:44:14.716Z,95136.00
2018-08-07T23:46:44.865Z,95130.00
2018-08-07T23:49:15.649Z,95130.00
2018-08-07T23:51:45.499Z,95127.00
2018-08-07T23:54:15.028Z,95121.00
2018-08-07T23:56:44.598Z,95103.00
2018-08-07T23:59:14.237Z,95098.00
